Time;durP1;ratioP1;P1;durP2;ratioP2;P2;SDS_P1;SDS_P2;PMS_P1;PMS_P2;Temp;Humidity;BMP_temperature;BMP_pressure;BME280_temperature;BME280_humidity;BME280_pressure;Samples;Min_cycle;Max_cycle;Signal;HPM_P1;HPM_P2
2022/10/13 00:00:38;;;;;;;20.55;10.88;;;;;;;;;;5068378;28;20044;-65
2022/10/13 00:03:04;;;;;;;21.95;11.80;;;;;;;;;;5069076;28;20114;-66
2022/10/13 00:05:31;;;;;;;21.23;11.32;;;;;;;;;;5071533;28;20040;-64
2022/10/13 00:07:57;;;;;;;23.38;12.15;;;;;;;;;;5058075;28;20044;-66
2022/10/13 00:10:24;;;;;;;21.05;12.50;;;;;;;;;;5062829;28;20040;-64
2022/10/13 00:12:50;;;;;;;23.13;11.57;;;;;;;;;;5062212;28;20037;-65
2022/10/13 00:15:17;;;;;;;19.27;11.75;;;;;;;;;;5065085;28;20068;-65
2022/10/13 00:17:43;;;;;;;20.05;11.57;;;;;;;;;;5057833;28;20097;-64
2022/10/13 00:20:09;;;;;;;23.52;11.40;;;;;;;;;;5070595;28;20044;-64
2022/10/13 00:22:35;;;;;;;18.88;11.20;;;;;;;;;;5072987;28;20037;-66
2022/10/13 00:25:02;;;;;;;19.52;11.77;;;;;;;;;;5069283;28;20055;-65
2022/10/13 00:27:28;;;;;;;18.67;11.73;;;;;;;;;;5043897;28;20044;-64
2022/10/13 00:29:54;;;;;;;21.42;11.30;;;;;;;;;;5066629;28;20036;-64
2022/10/13 00:32:20;;;;;;;23.98;13.00;;;;;;;;;;5067264;28;20049;-66
2022/10/13 00:34:46;;;;;;;27.80;12.77;;;;;;;;;;5065107;28;20048;-64
2022/10/13 00:37:12;;;;;;;24.73;12.70;;;;;;;;;;5069530;28;20049;-66
2022/10/13 00:39:38;;;;;;;22.10;12.18;;;;;;;;;;5068553;28;20052;-65
2022/10/13 00:42:06;;;;;;;24.63;13.30;;;;;;;;;;5070000;28;20037;-64
2022/10/13 00:44:51;;;;;;;21.13;12.48;;;;;;;;;;5069252;28;20154;-65
2022/10/13 00:47:17;;;;;;;23.88;12.40;;;;;;;;;;5069134;28;20040;-64
2022/10/13 00:49:43;;;;;;;24.27;12.43;;;;;;;;;;5069780;28;20513;-64
2022/10/13 00:52:10;;;;;;;23.83;12.02;;;;;;;;;;5064288;28;20107;-64
2022/10/13 00:54:36;;;;;;;21.15;11.85;;;;;;;;;;5069079;28;20036;-64
2022/10/13 00:57:02;;;;;;;21.02;12.27;;;;;;;;;;5069876;28;20199;-64
2022/10/13 00:59:28;;;;;;;23.23;12.55;;;;;;;;;;5066246;28;20090;-64
2022/10/13 01:01:55;;;;;;;24.77;12.60;;;;;;;;;;5065423;28;20518;-65
2022/10/13 01:04:22;;;;;;;23.88;12.27;;;;;;;;;;5062037;28;20048;-65
2022/10/13 01:06:49;;;;;;;26.92;13.50;;;;;;;;;;5070022;28;20568;-64
2022/10/13 01:09:15;;;;;;;23.17;12.55;;;;;;;;;;5068960;28;20044;-65
2022/10/13 01:11:56;;;;;;;27.73;12.48;;;;;;;;;;5069421;28;20051;-66
2022/10/13 01:14:22;;;;;;;;;;;;;;;;;;5067396;28;20491;-64
2022/10/13 01:16:51;;;;;;;24.85;13.15;;;;;;;;;;5069542;28;19916;-65
2022/10/13 01:19:45;;;;;;;22.73;12.10;;;;;;;;;;5067658;28;20098;-65
2022/10/13 01:22:29;;;;;;;23.88;12.38;;;;;;;;;;5069102;28;20049;-67
2022/10/13 01:24:58;;;;;;;27.83;13.57;;;;;;;;;;5068988;28;20041;-65
2022/10/13 01:27:36;;;;;;;22.98;12.93;;;;;;;;;;5067257;28;20632;-65
2022/10/13 01:30:05;;;;;;;23.08;13.05;;;;;;;;;;5068998;28;20452;-65
2022/10/13 01:32:34;;;;;;;19.90;12.68;;;;;;;;;;5066514;28;20044;-65
2022/10/13 01:35:29;;;;;;;23.67;12.40;;;;;;;;;;5068355;28;20047;-64
2022/10/13 01:38:06;;;;;;;25.27;13.38;;;;;;;;;;5069767;28;20129;-65
2022/10/13 01:40:37;;;;;;;24.70;12.07;;;;;;;;;;5061138;28;20040;-64
2022/10/13 01:43:03;;;;;;;;;;;;;;;;;;5066405;28;20078;-64
2022/10/13 01:45:31;;;;;;;22.70;12.40;;;;;;;;;;5067541;28;20278;-65
2022/10/13 01:47:59;;;;;;;19.98;11.52;;;;;;;;;;5082908;28;20032;-65
2022/10/13 01:50:25;;;;;;;24.02;12.93;;;;;;;;;;5065606;28;20036;-64
2022/10/13 01:52:51;;;;;;;23.90;13.15;;;;;;;;;;5068793;28;20487;-66
2022/10/13 01:55:17;;;;;;;24.70;13.48;;;;;;;;;;5064268;28;20440;-65
2022/10/13 01:57:44;;;;;;;18.70;12.05;;;;;;;;;;5061492;28;20032;-65
2022/10/13 02:00:15;;;;;;;20.92;13.07;;;;;;;;;;5064068;28;20047;-66
2022/10/13 02:02:41;;;;;;;23.25;12.43;;;;;;;;;;5062589;28;20090;-67
2022/10/13 02:05:07;;;;;;;22.15;12.20;;;;;;;;;;5059780;28;20052;-68
2022/10/13 02:07:36;;;;;;;26.17;12.70;;;;;;;;;;5062008;28;20039;-67
2022/10/13 02:10:06;;;;;;;25.73;12.77;;;;;;;;;;5068287;28;20052;-66
2022/10/13 02:12:59;;;;;;;21.20;12.73;;;;;;;;;;5078061;28;21022;-65
2022/10/13 02:15:28;;;;;;;22.30;12.23;;;;;;;;;;5063459;28;20423;-65
2022/10/13 02:17:55;;;;;;;22.83;11.60;;;;;;;;;;5063589;28;20036;-68
2022/10/13 02:20:21;;;;;;;20.13;12.05;;;;;;;;;;5059822;28;20052;-66
2022/10/13 02:22:50;;;;;;;21.38;12.32;;;;;;;;;;5068895;28;20530;-65
2022/10/13 02:25:16;;;;;;;20.17;11.70;;;;;;;;;;5066171;28;20481;-65
2022/10/13 02:27:42;;;;;;;24.83;13.10;;;;;;;;;;5068339;28;20082;-66
2022/10/13 02:30:09;;;;;;;23.73;13.13;;;;;;;;;;5066448;28;20115;-66
2022/10/13 02:32:35;;;;;;;23.15;12.45;;;;;;;;;;5069459;28;20040;-65
2022/10/13 02:35:01;;;;;;;26.33;13.10;;;;;;;;;;5066561;28;20048;-66
2022/10/13 02:37:27;;;;;;;23.20;13.18;;;;;;;;;;5065118;28;20048;-65
2022/10/13 02:39:53;;;;;;;22.90;12.70;;;;;;;;;;5063872;28;20127;-65
2022/10/13 02:42:19;;;;;;;23.60;12.65;;;;;;;;;;5070122;28;20040;-65
2022/10/13 02:44:45;;;;;;;24.27;13.43;;;;;;;;;;5069032;28;20051;-66
2022/10/13 02:47:12;;;;;;;24.70;14.05;;;;;;;;;;5069467;28;20064;-66
2022/10/13 02:49:38;;;;;;;22.88;13.15;;;;;;;;;;5066346;28;20064;-65
2022/10/13 02:52:04;;;;;;;23.48;13.50;;;;;;;;;;5067490;28;20521;-66
2022/10/13 02:54:30;;;;;;;24.50;13.60;;;;;;;;;;5066127;28;20139;-66
2022/10/13 02:56:56;;;;;;;26.10;14.38;;;;;;;;;;5064458;28;20107;-65
2022/10/13 02:59:22;;;;;;;22.77;13.80;;;;;;;;;;5061407;28;20490;-65
2022/10/13 03:01:48;;;;;;;27.63;13.88;;;;;;;;;;5070048;28;20037;-65
2022/10/13 03:04:14;;;;;;;26.58;13.52;;;;;;;;;;5066757;28;20427;-65
2022/10/13 03:06:40;;;;;;;25.15;12.85;;;;;;;;;;5067753;28;20041;-64
2022/10/13 03:09:06;;;;;;;25.05;13.68;;;;;;;;;;5066570;28;20037;-65
2022/10/13 03:11:32;;;;;;;25.85;13.50;;;;;;;;;;5062217;28;20036;-64
2022/10/13 03:13:59;;;;;;;28.80;14.35;;;;;;;;;;5069786;28;20029;-64
2022/10/13 03:16:25;;;;;;;31.30;14.15;;;;;;;;;;5068507;28;20048;-64
2022/10/13 03:18:51;;;;;;;26.27;13.95;;;;;;;;;;5063554;28;20044;-67
2022/10/13 03:21:17;;;;;;;25.65;13.25;;;;;;;;;;5066065;28;20043;-64
2022/10/13 03:23:43;;;;;;;25.98;13.07;;;;;;;;;;5066853;28;20040;-65
2022/10/13 03:26:09;;;;;;;25.35;13.40;;;;;;;;;;5070075;28;20505;-64
2022/10/13 03:28:35;;;;;;;27.98;14.60;;;;;;;;;;5065253;28;20495;-64
2022/10/13 03:31:02;;;;;;;29.13;14.10;;;;;;;;;;5067134;28;20041;-66
2022/10/13 03:33:28;;;;;;;25.00;13.32;;;;;;;;;;5072104;28;20604;-65
2022/10/13 03:35:57;;;;;;;24.38;13.27;;;;;;;;;;5073934;28;20495;-67
2022/10/13 03:38:23;;;;;;;21.98;13.50;;;;;;;;;;5069778;28;20040;-65
2022/10/13 03:40:49;;;;;;;29.35;14.02;;;;;;;;;;5069008;28;20129;-66
2022/10/13 03:43:15;;;;;;;23.00;14.38;;;;;;;;;;5071252;28;20501;-65
2022/10/13 03:45:41;;;;;;;25.27;14.80;;;;;;;;;;5070507;28;20135;-67
2022/10/13 03:48:07;;;;;;;26.40;14.70;;;;;;;;;;5064682;28;20601;-67
2022/10/13 03:50:33;;;;;;;24.95;14.98;;;;;;;;;;5070179;28;20068;-66
2022/10/13 03:52:59;;;;;;;26.80;14.52;;;;;;;;;;5065895;28;20028;-65
2022/10/13 03:55:25;;;;;;;27.90;14.88;;;;;;;;;;5069741;28;20516;-67
2022/10/13 03:57:51;;;;;;;24.40;14.93;;;;;;;;;;5063566;28;20040;-68
2022/10/13 04:00:17;;;;;;;27.63;15.65;;;;;;;;;;5066636;28;20048;-68
2022/10/13 04:02:43;;;;;;;28.42;14.90;;;;;;;;;;5066040;28;21082;-68
2022/10/13 04:05:09;;;;;;;28.10;14.82;;;;;;;;;;5067058;28;20402;-66
2022/10/13 04:07:35;;;;;;;29.67;16.25;;;;;;;;;;5072176;28;20040;-66
2022/10/13 04:10:01;;;;;;;25.05;15.20;;;;;;;;;;5069057;28;20040;-66
2022/10/13 04:12:27;;;;;;;25.10;15.32;;;;;;;;;;5048888;28;20044;-66
2022/10/13 04:14:53;;;;;;;34.65;16.58;;;;;;;;;;5059721;28;20049;-67
2022/10/13 04:17:19;;;;;;;27.67;15.73;;;;;;;;;;5062328;28;20388;-67
2022/10/13 04:19:45;;;;;;;25.17;15.13;;;;;;;;;;5068767;28;20129;-67
2022/10/13 04:22:11;;;;;;;28.90;15.98;;;;;;;;;;5054542;28;20059;-66
2022/10/13 04:24:37;;;;;;;29.17;15.15;;;;;;;;;;5061806;28;20044;-66
2022/10/13 04:27:03;;;;;;;27.42;14.90;;;;;;;;;;5068766;28;20037;-67
2022/10/13 04:29:29;;;;;;;30.52;15.48;;;;;;;;;;5063730;28;20052;-66
2022/10/13 04:31:55;;;;;;;31.20;15.82;;;;;;;;;;5072271;28;20453;-66
2022/10/13 04:34:21;;;;;;;26.92;15.32;;;;;;;;;;5068543;28;20041;-67
2022/10/13 04:36:50;;;;;;;29.38;14.98;;;;;;;;;;5067885;28;20102;-67
2022/10/13 04:39:17;;;;;;;25.50;15.18;;;;;;;;;;5072120;28;20464;-67
2022/10/13 04:41:43;;;;;;;24.25;14.77;;;;;;;;;;5065766;28;20043;-68
2022/10/13 04:44:09;;;;;;;28.05;16.02;;;;;;;;;;5068940;28;20075;-68
2022/10/13 04:46:35;;;;;;;25.42;15.75;;;;;;;;;;5071267;28;20063;-69
2022/10/13 04:49:01;;;;;;;26.80;15.18;;;;;;;;;;5068161;28;20411;-68
2022/10/13 04:51:27;;;;;;;27.45;14.75;;;;;;;;;;5069888;28;20044;-67
2022/10/13 04:53:57;;;;;;;30.73;15.35;;;;;;;;;;5066441;28;20075;-67
2022/10/13 04:56:23;;;;;;;32.70;16.55;;;;;;;;;;5067211;28;20044;-67
2022/10/13 04:58:49;;;;;;;26.17;15.80;;;;;;;;;;5066415;28;20274;-67
2022/10/13 05:01:18;;;;;;;29.00;16.02;;;;;;;;;;5065196;28;20466;-67
2022/10/13 05:03:44;;;;;;;27.67;15.23;;;;;;;;;;5066519;28;20454;-68
2022/10/13 05:06:17;;;;;;;27.52;15.93;;;;;;;;;;5074722;28;20050;-67
2022/10/13 05:08:43;;;;;;;29.42;15.52;;;;;;;;;;5071935;28;20138;-67
2022/10/13 05:11:10;;;;;;;28.23;16.10;;;;;;;;;;5063855;28;20041;-67
2022/10/13 05:13:36;;;;;;;29.60;15.02;;;;;;;;;;5053949;28;20037;-67
2022/10/13 05:16:06;;;;;;;29.17;15.60;;;;;;;;;;5065658;28;20037;-67
2022/10/13 05:18:32;;;;;;;29.13;16.20;;;;;;;;;;5074154;28;20036;-67
2022/10/13 05:21:05;;;;;;;28.60;15.57;;;;;;;;;;5066663;28;20101;-67
2022/10/13 05:23:31;;;;;;;28.17;15.98;;;;;;;;;;5074930;28;20044;-67
2022/10/13 05:26:00;;;;;;;31.05;16.85;;;;;;;;;;5062562;28;20036;-68
2022/10/13 05:28:26;;;;;;;28.65;14.98;;;;;;;;;;5067252;28;20035;-67
2022/10/13 05:30:52;;;;;;;31.05;16.05;;;;;;;;;;5068680;28;20127;-67
2022/10/13 05:33:18;;;;;;;27.23;15.45;;;;;;;;;;5069390;28;20086;-67
2022/10/13 05:35:44;;;;;;;29.20;14.98;;;;;;;;;;5067843;28;20048;-67
2022/10/13 05:38:10;;;;;;;27.30;16.30;;;;;;;;;;5070395;28;20071;-67
2022/10/13 05:40:36;;;;;;;31.90;16.15;;;;;;;;;;5069997;28;20068;-67
2022/10/13 05:43:03;;;;;;;30.02;15.90;;;;;;;;;;5064053;28;20538;-67
2022/10/13 05:45:31;;;;;;;29.00;17.10;;;;;;;;;;5066100;28;20429;-67
2022/10/13 05:47:57;;;;;;;30.42;15.68;;;;;;;;;;5065385;28;20032;-66
2022/10/13 05:50:24;;;;;;;27.15;16.20;;;;;;;;;;5064666;28;20101;-68
2022/10/13 05:52:50;;;;;;;29.65;15.65;;;;;;;;;;5067870;28;20032;-67
2022/10/13 05:55:17;;;;;;;25.73;15.32;;;;;;;;;;5064191;28;20150;-67
2022/10/13 05:57:45;;;;;;;31.77;16.75;;;;;;;;;;5070105;28;20086;-67
2022/10/13 06:00:13;;;;;;;26.50;15.40;;;;;;;;;;5067722;28;20052;-66
2022/10/13 06:02:42;;;;;;;28.45;16.60;;;;;;;;;;5049910;28;20044;-65
2022/10/13 06:05:11;;;;;;;26.15;15.60;;;;;;;;;;5066831;28;20828;-66
2022/10/13 06:07:37;;;;;;;30.83;15.95;;;;;;;;;;5062607;28;20044;-66
2022/10/13 06:10:03;;;;;;;27.45;15.43;;;;;;;;;;5068096;28;20040;-66
2022/10/13 06:12:29;;;;;;;29.42;17.33;;;;;;;;;;5063904;28;20072;-66
2022/10/13 06:14:55;;;;;;;32.75;16.52;;;;;;;;;;5064920;28;20083;-66
2022/10/13 06:17:21;;;;;;;30.80;16.60;;;;;;;;;;5050436;28;20048;-66
2022/10/13 06:19:47;;;;;;;30.50;16.85;;;;;;;;;;5068865;28;20052;-67
2022/10/13 06:22:13;;;;;;;29.80;16.40;;;;;;;;;;5051324;28;20048;-67
2022/10/13 06:24:39;;;;;;;29.10;16.70;;;;;;;;;;5062788;28;20138;-66
2022/10/13 06:27:05;;;;;;;29.33;16.45;;;;;;;;;;5061072;28;20127;-66
2022/10/13 06:29:32;;;;;;;30.48;17.42;;;;;;;;;;5060373;28;20402;-67
2022/10/13 06:31:58;;;;;;;29.38;16.63;;;;;;;;;;5056963;28;20048;-67
2022/10/13 06:34:24;;;;;;;30.63;17.48;;;;;;;;;;5057975;28;20037;-67
2022/10/13 06:36:50;;;;;;;27.95;16.83;;;;;;;;;;5051256;28;20039;-67
2022/10/13 06:39:16;;;;;;;28.67;17.25;;;;;;;;;;5058875;28;20041;-66
2022/10/13 06:41:42;;;;;;;33.13;17.20;;;;;;;;;;5067702;28;20033;-67
2022/10/13 06:44:08;;;;;;;27.75;16.45;;;;;;;;;;5065899;28;20076;-67
2022/10/13 06:46:34;;;;;;;33.70;17.10;;;;;;;;;;5064556;28;20075;-67
2022/10/13 06:49:00;;;;;;;28.48;16.40;;;;;;;;;;5069361;28;20629;-67
2022/10/13 06:51:26;;;;;;;30.20;16.95;;;;;;;;;;5058899;28;20152;-67
2022/10/13 06:53:52;;;;;;;26.70;15.57;;;;;;;;;;5061125;28;20461;-66
2022/10/13 06:56:18;;;;;;;33.00;16.95;;;;;;;;;;5061166;28;20045;-66
2022/10/13 06:58:44;;;;;;;28.90;16.65;;;;;;;;;;5064351;28;20044;-67
2022/10/13 07:01:12;;;;;;;29.35;17.73;;;;;;;;;;5063064;28;20048;-66
2022/10/13 07:03:38;;;;;;;31.20;16.85;;;;;;;;;;5045361;28;20044;-67
2022/10/13 07:06:05;;;;;;;33.53;17.25;;;;;;;;;;5065197;28;20041;-68
2022/10/13 07:08:34;;;;;;;33.03;17.17;;;;;;;;;;5067383;28;20041;-68
2022/10/13 07:11:05;;;;;;;31.23;17.50;;;;;;;;;;5059835;28;20061;-67
2022/10/13 07:13:31;;;;;;;31.17;17.52;;;;;;;;;;5067161;28;20150;-68
2022/10/13 07:15:57;;;;;;;33.35;18.35;;;;;;;;;;5055698;28;20151;-70
2022/10/13 07:18:23;;;;;;;31.08;16.65;;;;;;;;;;5067218;28;20075;-68
2022/10/13 07:20:49;;;;;;;28.05;16.60;;;;;;;;;;5064951;28;20052;-68
2022/10/13 07:23:15;;;;;;;36.67;17.27;;;;;;;;;;5068009;28;20321;-68
2022/10/13 07:25:41;;;;;;;28.33;17.42;;;;;;;;;;5065514;28;20053;-68
2022/10/13 07:28:07;;;;;;;33.80;17.10;;;;;;;;;;5059201;28;20091;-69
2022/10/13 07:30:33;;;;;;;30.98;16.10;;;;;;;;;;5062676;28;20047;-66
2022/10/13 07:33:00;;;;;;;32.83;17.02;;;;;;;;;;5062904;28;20029;-67
2022/10/13 07:35:26;;;;;;;32.95;17.80;;;;;;;;;;5057818;28;20490;-67
2022/10/13 07:37:52;;;;;;;30.30;16.83;;;;;;;;;;5067313;28;20137;-67
2022/10/13 07:40:18;;;;;;;31.00;16.90;;;;;;;;;;5059742;28;20040;-68
2022/10/13 07:42:44;;;;;;;31.63;16.88;;;;;;;;;;5058594;28;20085;-67
2022/10/13 07:45:10;;;;;;;33.78;17.63;;;;;;;;;;5067721;28;20057;-67
2022/10/13 07:47:36;;;;;;;29.15;17.30;;;;;;;;;;5067605;28;20044;-66
2022/10/13 07:50:03;;;;;;;32.33;17.40;;;;;;;;;;5066823;28;20641;-68
2022/10/13 07:52:29;;;;;;;34.08;17.48;;;;;;;;;;5061760;28;20356;-67
2022/10/13 07:54:55;;;;;;;27.92;16.88;;;;;;;;;;5064267;28;20045;-68
2022/10/13 07:57:21;;;;;;;34.33;17.98;;;;;;;;;;5058313;28;20044;-68
2022/10/13 07:59:47;;;;;;;37.75;17.67;;;;;;;;;;5064247;28;20486;-68
2022/10/13 08:02:13;;;;;;;30.40;17.95;;;;;;;;;;5065263;28;20039;-68
2022/10/13 08:04:39;;;;;;;31.17;18.20;;;;;;;;;;5063406;28;20442;-68
2022/10/13 08:07:06;;;;;;;34.30;18.77;;;;;;;;;;5064487;28;20132;-68
2022/10/13 08:09:32;;;;;;;30.23;17.40;;;;;;;;;;5072873;28;20044;-68
2022/10/13 08:11:58;;;;;;;33.78;17.60;;;;;;;;;;5068989;28;20036;-68
2022/10/13 08:14:24;;;;;;;31.90;17.70;;;;;;;;;;5068421;28;20143;-68
2022/10/13 08:16:50;;;;;;;32.90;17.33;;;;;;;;;;5070798;28;20040;-68
2022/10/13 08:19:16;;;;;;;31.00;17.85;;;;;;;;;;5070091;28;20050;-69
2022/10/13 08:21:45;;;;;;;30.30;18.92;;;;;;;;;;5066220;28;20426;-68
2022/10/13 08:24:13;;;;;;;30.90;17.38;;;;;;;;;;5069248;28;20235;-68
2022/10/13 08:26:39;;;;;;;32.00;18.02;;;;;;;;;;5066992;28;20123;-68
2022/10/13 08:29:05;;;;;;;29.83;18.75;;;;;;;;;;5071175;28;20032;-70
2022/10/13 08:31:31;;;;;;;34.67;18.58;;;;;;;;;;5071131;28;20036;-69
2022/10/13 08:33:57;;;;;;;31.33;18.30;;;;;;;;;;5069712;28;20543;-68
2022/10/13 08:36:23;;;;;;;30.23;18.40;;;;;;;;;;5071405;28;20040;-68
2022/10/13 08:38:52;;;;;;;35.03;18.35;;;;;;;;;;5068303;28;22315;-68
2022/10/13 08:41:18;;;;;;;32.67;18.42;;;;;;;;;;5067434;28;20048;-69
2022/10/13 08:44:04;;;;;;;32.53;17.70;;;;;;;;;;5069362;28;20045;-69
2022/10/13 08:46:36;;;;;;;30.98;18.38;;;;;;;;;;5070590;28;20045;-68
2022/10/13 08:49:04;;;;;;;33.53;18.83;;;;;;;;;;5072475;28;20645;-68
2022/10/13 08:51:30;;;;;;;38.67;17.98;;;;;;;;;;5069208;28;20101;-68
2022/10/13 08:53:57;;;;;;;29.08;17.85;;;;;;;;;;5070119;28;20111;-69
2022/10/13 08:56:29;;;;;;;33.15;17.33;;;;;;;;;;5066515;28;20043;-68
2022/10/13 08:58:55;;;;;;;31.80;17.95;;;;;;;;;;5072132;28;20383;-68
2022/10/13 09:01:22;;;;;;;32.78;18.63;;;;;;;;;;5071005;28;20409;-68
2022/10/13 09:03:48;;;;;;;34.08;17.98;;;;;;;;;;5069519;28;20044;-68
2022/10/13 09:06:20;;;;;;;32.70;18.25;;;;;;;;;;5059276;28;20068;-68
2022/10/13 09:09:06;;;;;;;30.30;18.25;;;;;;;;;;5070682;28;20071;-68
2022/10/13 09:11:33;;;;;;;30.17;17.80;;;;;;;;;;5050840;28;20048;-67
2022/10/13 09:14:01;;;;;;;35.25;17.95;;;;;;;;;;5059881;28;20036;-67
2022/10/13 09:16:28;;;;;;;34.30;18.77;;;;;;;;;;5067003;28;20514;-67
2022/10/13 09:18:55;;;;;;;33.97;19.42;;;;;;;;;;5060108;28;20175;-67
2022/10/13 09:21:23;;;;;;;31.45;18.05;;;;;;;;;;5067023;28;20051;-67
2022/10/13 09:23:50;;;;;;;36.38;17.77;;;;;;;;;;5072130;28;20071;-67
2022/10/13 09:26:20;;;;;;;29.23;18.33;;;;;;;;;;5069328;28;20090;-68
2022/10/13 09:28:47;;;;;;;31.00;17.70;;;;;;;;;;5064513;28;20399;-67
2022/10/13 09:31:15;;;;;;;35.20;18.35;;;;;;;;;;5057670;28;20032;-68
2022/10/13 09:33:42;;;;;;;33.75;17.60;;;;;;;;;;5065498;28;20043;-68
2022/10/13 09:36:12;;;;;;;31.20;17.60;;;;;;;;;;5067769;28;20048;-68
2022/10/13 09:38:39;;;;;;;30.30;18.52;;;;;;;;;;5070785;28;20037;-68
2022/10/13 09:41:11;;;;;;;33.20;18.10;;;;;;;;;;5065461;28;20037;-67
2022/10/13 09:43:46;;;;;;;31.85;18.33;;;;;;;;;;5067087;28;20036;-68
2022/10/13 09:46:26;;;;;;;37.17;17.90;;;;;;;;;;5069337;28;20059;-68
2022/10/13 09:48:54;;;;;;;36.28;17.92;;;;;;;;;;5065761;28;20051;-68
2022/10/13 09:51:43;;;;;;;31.00;17.80;;;;;;;;;;5067709;28;20037;-68
2022/10/13 09:54:25;;;;;;;35.17;19.38;;;;;;;;;;5060950;28;20055;-68
2022/10/13 09:56:53;;;;;;;36.30;18.55;;;;;;;;;;5069743;28;20052;-68
2022/10/13 09:59:23;;;;;;;35.50;18.17;;;;;;;;;;5067277;28;20047;-68
2022/10/13 10:01:50;;;;;;;36.57;18.53;;;;;;;;;;5069087;28;20509;-68
2022/10/13 10:04:19;;;;;;;33.10;18.13;;;;;;;;;;5068005;28;20048;-68
2022/10/13 10:06:45;;;;;;;32.75;18.52;;;;;;;;;;5069316;28;20805;-68
2022/10/13 10:09:22;;;;;;;31.50;18.38;;;;;;;;;;5051626;28;20118;-68
2022/10/13 10:11:49;;;;;;;31.13;17.88;;;;;;;;;;5065636;28;20045;-68
2022/10/13 10:14:26;;;;;;;38.50;20.05;;;;;;;;;;5069524;28;20435;-68
2022/10/13 10:17:02;;;;;;;35.38;20.08;;;;;;;;;;5069202;28;20435;-68
2022/10/13 10:19:54;;;;;;;33.25;20.17;;;;;;;;;;5064236;28;20032;-68
2022/10/13 10:22:29;;;;;;;42.00;20.83;;;;;;;;;;5065741;28;20040;-68
2022/10/13 10:25:07;;;;;;;39.88;20.85;;;;;;;;;;5069797;28;20127;-68
2022/10/13 10:27:39;;;;;;;36.55;21.13;;;;;;;;;;5064735;28;20044;-68
2022/10/13 10:30:12;;;;;;;37.85;20.88;;;;;;;;;;5065976;28;20509;-68
2022/10/13 10:32:50;;;;;;;37.78;21.60;;;;;;;;;;5068208;28;20037;-68
2022/10/13 10:35:35;;;;;;;40.00;21.50;;;;;;;;;;5068525;28;20045;-68
2022/10/13 10:38:01;;;;;;;37.58;21.35;;;;;;;;;;5066829;28;20036;-68
2022/10/13 10:40:27;;;;;;;38.45;22.52;;;;;;;;;;5067569;28;20048;-68
2022/10/13 10:43:20;;;;;;;38.65;22.95;;;;;;;;;;5069364;28;20047;-67
2022/10/13 10:45:47;;;;;;;39.00;22.50;;;;;;;;;;5065013;28;20097;-67
2022/10/13 10:48:25;;;;;;;36.92;21.17;;;;;;;;;;5068643;28;20062;-67
2022/10/13 10:50:52;;;;;;;37.75;21.65;;;;;;;;;;5066314;28;20048;-68
2022/10/13 10:53:22;;;;;;;41.30;22.83;;;;;;;;;;5068817;28;20399;-68
2022/10/13 10:55:51;;;;;;;39.78;21.48;;;;;;;;;;5060816;28;20121;-68
2022/10/13 10:58:20;;;;;;;40.40;21.70;;;;;;;;;;5067413;28;20051;-68
2022/10/13 11:00:59;;;;;;;35.92;21.67;;;;;;;;;;5067022;28;20513;-68
2022/10/13 11:03:36;;;;;;;36.17;22.10;;;;;;;;;;5068832;28;20059;-68
2022/10/13 11:06:20;;;;;;;36.85;20.70;;;;;;;;;;5066642;28;20049;-68
2022/10/13 11:08:47;;;;;;;35.15;21.95;;;;;;;;;;5059321;28;20439;-68
2022/10/13 11:11:22;;;;;;;37.75;20.85;;;;;;;;;;5069917;28;20033;-68
2022/10/13 11:14:08;;;;;;;33.63;20.48;;;;;;;;;;5066582;28;20526;-68
2022/10/13 11:16:37;;;;;;;35.05;21.00;;;;;;;;;;5057294;28;20055;-68
2022/10/13 11:19:05;;;;;;;35.58;21.42;;;;;;;;;;5064086;28;20052;-67
2022/10/13 11:21:50;;;;;;;31.73;21.42;;;;;;;;;;5063872;28;20534;-67
2022/10/13 11:24:40;;;;;;;35.13;20.73;;;;;;;;;;5067687;28;20041;-68
2022/10/13 11:27:09;;;;;;;38.13;21.75;;;;;;;;;;5055214;28;20053;-68
2022/10/13 11:29:45;;;;;;;40.30;20.67;;;;;;;;;;5064352;28;20052;-67
2022/10/13 11:32:40;;;;;;;32.70;21.23;;;;;;;;;;5068113;28;20053;-68
2022/10/13 11:35:09;;;;;;;34.38;21.58;;;;;;;;;;5068710;28;20094;-68
2022/10/13 11:37:35;;;;;;;37.17;21.55;;;;;;;;;;5060610;28;20120;-67
2022/10/13 11:40:20;;;;;;;37.78;22.48;;;;;;;;;;5069648;28;20064;-68
2022/10/13 11:42:53;;;;;;;38.20;22.02;;;;;;;;;;5067820;28;20111;-68
2022/10/13 11:45:27;;;;;;;37.47;23.20;;;;;;;;;;5067703;28;20131;-68
2022/10/13 11:48:01;;;;;;;35.67;22.58;;;;;;;;;;5064741;28;20128;-68
2022/10/13 11:50:36;;;;;;;38.83;22.23;;;;;;;;;;5068084;28;20055;-67
2022/10/13 11:53:15;;;;;;;37.33;23.88;;;;;;;;;;5070651;28;20138;-67
2022/10/13 11:55:41;;;;;;;37.08;21.55;;;;;;;;;;5069829;28;20051;-68
2022/10/13 11:58:20;;;;;;;38.50;22.25;;;;;;;;;;5066246;28;20398;-68
2022/10/13 12:00:57;;;;;;;38.15;22.00;;;;;;;;;;5071641;28;20042;-68
2022/10/13 12:03:31;;;;;;;37.58;22.30;;;;;;;;;;5069944;28;20079;-68
2022/10/13 12:06:00;;;;;;;39.88;22.88;;;;;;;;;;5068887;28;20115;-68
2022/10/13 12:08:27;;;;;;;39.33;22.90;;;;;;;;;;5068727;28;20036;-67
2022/10/13 12:10:56;;;;;;;38.60;22.02;;;;;;;;;;5068609;28;20051;-67
2022/10/13 12:13:24;;;;;;;38.08;22.17;;;;;;;;;;5071840;28;20686;-67
2022/10/13 12:15:58;;;;;;;40.13;23.08;;;;;;;;;;5067617;28;20049;-68
2022/10/13 12:18:38;;;;;;;35.78;22.42;;;;;;;;;;5068652;28;20051;-68
2022/10/13 12:21:24;;;;;;;40.08;23.20;;;;;;;;;;5073113;28;20433;-68
2022/10/13 12:23:51;;;;;;;42.35;23.30;;;;;;;;;;5072626;28;20711;-68
2022/10/13 12:26:19;;;;;;;39.67;21.80;;;;;;;;;;5063323;28;20070;-69
2022/10/13 12:28:44;;;;;;;43.13;23.27;;;;;;;;;;5070914;28;20032;-68
2022/10/13 12:31:17;;;;;;;37.67;23.45;;;;;;;;;;5069861;28;20040;-69
2022/10/13 12:33:43;;;;;;;43.08;25.00;;;;;;;;;;5071005;28;20132;-70
2022/10/13 12:36:14;;;;;;;41.83;23.58;;;;;;;;;;5068460;28;20451;-69
2022/10/13 12:38:42;;;;;;;44.08;24.48;;;;;;;;;;5066593;28;20043;-69
2022/10/13 12:41:09;;;;;;;49.90;26.13;;;;;;;;;;5071023;28;20506;-69
2022/10/13 12:43:35;;;;;;;47.20;25.60;;;;;;;;;;5071028;28;20102;-71
2022/10/13 12:46:01;;;;;;;42.88;24.42;;;;;;;;;;5067605;28;20052;-70
2022/10/13 12:48:31;;;;;;;50.00;26.75;;;;;;;;;;5070103;28;20062;-70
2022/10/13 12:51:21;;;;;;;51.60;26.40;;;;;;;;;;5071342;28;20050;-69
2022/10/13 12:53:47;;;;;;;48.15;26.10;;;;;;;;;;5059652;28;20082;-70
2022/10/13 12:56:18;;;;;;;46.30;26.02;;;;;;;;;;5067209;28;20071;-69
2022/10/13 12:58:44;;;;;;;42.30;24.95;;;;;;;;;;5067307;28;20127;-70
2022/10/13 13:01:13;;;;;;;45.53;26.25;;;;;;;;;;5072100;28;20043;-69
2022/10/13 13:03:40;;;;;;;41.75;23.92;;;;;;;;;;5064912;28;20033;-68
2022/10/13 13:06:12;;;;;;;42.72;24.58;;;;;;;;;;5066602;28;20044;-69
2022/10/13 13:08:40;;;;;;;43.15;24.63;;;;;;;;;;5062696;28;20064;-69
2022/10/13 13:11:17;;;;;;;43.63;25.05;;;;;;;;;;5072328;28;20068;-69
2022/10/13 13:13:43;;;;;;;39.42;23.90;;;;;;;;;;5070525;28;20040;-68
2022/10/13 13:16:14;;;;;;;41.85;24.27;;;;;;;;;;5067378;28;20036;-68
2022/10/13 13:18:41;;;;;;;38.35;24.48;;;;;;;;;;5067340;28;20051;-68
2022/10/13 13:21:17;;;;;;;40.47;23.35;;;;;;;;;;5071600;28;20040;-68
2022/10/13 13:23:45;;;;;;;41.42;24.20;;;;;;;;;;5070335;28;20093;-68
2022/10/13 13:26:31;;;;;;;39.65;23.70;;;;;;;;;;5067239;28;20237;-68
2022/10/13 13:28:58;;;;;;;43.67;24.67;;;;;;;;;;5069091;28;20044;-69
2022/10/13 13:31:25;;;;;;;40.22;23.50;;;;;;;;;;5054453;28;20121;-68
2022/10/13 13:33:51;;;;;;;46.10;24.73;;;;;;;;;;5062725;28;20231;-69
2022/10/13 13:36:25;;;;;;;45.42;23.77;;;;;;;;;;5068427;28;20060;-68
2022/10/13 13:38:52;;;;;;;39.38;23.05;;;;;;;;;;5061527;28;20040;-75
2022/10/13 13:41:18;;;;;;;42.72;24.60;;;;;;;;;;5064798;28;20048;-71
2022/10/13 13:43:44;;;;;;;41.97;25.00;;;;;;;;;;5066334;28;20037;-69
2022/10/13 13:46:17;;;;;;;45.75;24.70;;;;;;;;;;5064088;28;20514;-69
2022/10/13 13:48:43;;;;;;;44.42;24.92;;;;;;;;;;5060102;28;20029;-69
2022/10/13 13:51:09;;;;;;;39.70;23.83;;;;;;;;;;5070146;28;20048;-68
2022/10/13 13:53:36;;;;;;;41.10;24.08;;;;;;;;;;5067974;28;20522;-69
2022/10/13 13:56:02;;;;;;;40.25;23.90;;;;;;;;;;5065705;28;20044;-70
2022/10/13 13:58:28;;;;;;;41.28;23.95;;;;;;;;;;5061902;28;20047;-69
2022/10/13 14:00:54;;;;;;;41.90;24.27;;;;;;;;;;5068418;28;20045;-68
2022/10/13 14:03:20;;;;;;;42.05;24.90;;;;;;;;;;5058518;28;20036;-69
2022/10/13 14:05:46;;;;;;;42.22;23.90;;;;;;;;;;5045982;28;20044;-68
2022/10/13 14:08:12;;;;;;;40.90;24.17;;;;;;;;;;5068688;28;20403;-68
2022/10/13 14:10:39;;;;;;;40.67;24.05;;;;;;;;;;5067678;28;20040;-68
2022/10/13 14:13:05;;;;;;;42.88;24.52;;;;;;;;;;5065964;28;20092;-68
2022/10/13 14:15:31;;;;;;;43.38;25.25;;;;;;;;;;5062527;28;20044;-68
2022/10/13 14:17:57;;;;;;;42.50;24.60;;;;;;;;;;5061877;28;20063;-69
2022/10/13 14:20:23;;;;;;;43.97;25.58;;;;;;;;;;5055606;28;20033;-69
2022/10/13 14:22:49;;;;;;;45.72;25.80;;;;;;;;;;5058558;28;20440;-69
2022/10/13 14:25:15;;;;;;;41.20;25.23;;;;;;;;;;5065637;28;20047;-69
2022/10/13 14:27:41;;;;;;;35.03;21.75;;;;;;;;;;5068795;28;20467;-69